createdAt,value
2023-07-24T00:02:24.617Z,4.88
2023-07-24T00:04:51.101Z,7.07
2023-07-24T00:07:17.597Z,8.57
2023-07-24T00:09:44.151Z,6.30
2023-07-24T00:12:10.568Z,4.70
2023-07-24T00:14:36.958Z,6.53
2023-07-24T00:17:03.411Z,6.03
2023-07-24T00:19:29.837Z,6.65
2023-07-24T00:21:56.196Z,7.43
2023-07-24T00:24:22.609Z,5.95
2023-07-24T00:26:49.105Z,6.38
2023-07-24T00:29:15.494Z,5.50
2023-07-24T00:31:41.868Z,5.22
2023-07-24T00:34:08.242Z,9.48
2023-07-24T00:36:34.633Z,3.40
2023-07-24T00:39:01.130Z,5.45
2023-07-24T00:41:27.512Z,5.05
2023-07-24T00:43:53.879Z,4.00
2023-07-24T00:46:20.673Z,5.22
2023-07-24T00:48:47.112Z,4.50
2023-07-24T00:51:13.634Z,4.50
2023-07-24T00:53:40.223Z,4.00
2023-07-24T00:56:07.665Z,4.82
2023-07-24T00:58:38.002Z,3.28
2023-07-24T01:01:04.861Z,5.25
2023-07-24T01:03:35.845Z,5.45
2023-07-24T01:06:03.499Z,5.55
2023-07-24T01:08:29.940Z,8.30
2023-07-24T01:11:00.936Z,5.20
2023-07-24T01:13:31.086Z,4.95
2023-07-24T01:16:04.329Z,6.78
2023-07-24T01:18:31.768Z,6.35
2023-07-24T01:21:00.521Z,4.88
2023-07-24T01:23:56.535Z,5.25
2023-07-24T01:26:25.034Z,4.85
2023-07-24T01:28:51.594Z,4.15
2023-07-24T01:31:18.237Z,5.18
2023-07-24T01:33:45.630Z,5.40
2023-07-24T01:36:14.026Z,4.32
2023-07-24T01:38:41.214Z,4.40
2023-07-24T01:41:08.499Z,6.63
2023-07-24T01:43:35.355Z,8.15
2023-07-24T01:46:01.815Z,5.55
2023-07-24T01:48:28.217Z,6.22
2023-07-24T01:50:54.682Z,4.60
2023-07-24T01:53:21.146Z,6.40
2023-07-24T01:55:47.564Z,4.88
2023-07-24T01:58:13.944Z,4.30
2023-07-24T02:00:40.369Z,7.78
2023-07-24T02:03:07.980Z,5.57
2023-07-24T02:05:35.430Z,6.60
2023-07-24T02:08:01.900Z,4.70
2023-07-24T02:10:28.327Z,4.85
2023-07-24T02:12:54.725Z,4.55
2023-07-24T02:15:21.191Z,5.22
2023-07-24T02:17:47.613Z,5.10
2023-07-24T02:20:14.012Z,8.20
2023-07-24T02:22:40.537Z,4.50
2023-07-24T02:25:07.451Z,6.32
2023-07-24T02:27:35.314Z,4.63
2023-07-24T02:30:03.118Z,8.68
2023-07-24T02:32:29.738Z,4.70
2023-07-24T02:34:56.345Z,3.95
2023-07-24T02:37:23.048Z,5.13
2023-07-24T02:39:49.471Z,4.88
2023-07-24T02:42:15.990Z,3.88
2023-07-24T02:44:42.378Z,6.15
2023-07-24T02:47:08.919Z,5.32
2023-07-24T02:49:35.405Z,5.63
2023-07-24T02:52:02.038Z,4.95
2023-07-24T02:54:28.434Z,4.97
2023-07-24T02:56:54.812Z,4.85
2023-07-24T02:59:21.283Z,5.05
2023-07-24T03:01:47.749Z,6.10
2023-07-24T03:04:14.129Z,4.88
2023-07-24T03:06:41.281Z,6.13
2023-07-24T03:09:08.077Z,5.95
2023-07-24T03:11:34.446Z,7.05
2023-07-24T03:14:00.869Z,5.90
2023-07-24T03:16:27.590Z,7.03
2023-07-24T03:18:54.207Z,6.03
2023-07-24T03:21:21.956Z,5.85
2023-07-24T03:23:48.414Z,6.10
2023-07-24T03:26:14.881Z,7.15
2023-07-24T03:28:41.258Z,8.40
2023-07-24T03:31:08.144Z,4.38
2023-07-24T03:33:34.620Z,6.53
2023-07-24T03:36:01.060Z,4.93
2023-07-24T03:38:27.436Z,8.93
2023-07-24T03:40:53.902Z,4.53
2023-07-24T03:43:20.257Z,7.43
2023-07-24T03:45:46.655Z,6.95
2023-07-24T03:48:13.078Z,7.47
2023-07-24T03:50:41.693Z,6.53
2023-07-24T03:53:08.046Z,7.32
2023-07-24T03:55:34.617Z,5.90
2023-07-24T03:58:01.196Z,12.50
2023-07-24T04:00:27.597Z,7.68
2023-07-24T04:02:54.202Z,5.53
2023-07-24T04:05:20.810Z,6.70
2023-07-24T04:07:47.182Z,5.45
2023-07-24T04:10:13.777Z,8.48
2023-07-24T04:12:41.225Z,5.88
2023-07-24T04:15:08.342Z,5.18
2023-07-24T04:17:36.838Z,5.38
2023-07-24T04:20:04.216Z,6.65
2023-07-24T04:22:30.628Z,6.25
2023-07-24T04:24:57.039Z,6.80
2023-07-24T04:27:23.446Z,5.88
2023-07-24T04:29:49.847Z,7.78
2023-07-24T04:32:16.257Z,6.13
2023-07-24T04:34:42.671Z,5.95
2023-07-24T04:37:09.095Z,5.28
2023-07-24T04:39:35.505Z,5.75
2023-07-24T04:42:01.876Z,6.78
2023-07-24T04:44:28.371Z,5.25
2023-07-24T04:46:56.599Z,6.50
2023-07-24T04:49:23.017Z,5.72
2023-07-24T04:51:49.432Z,7.47
2023-07-24T04:54:15.828Z,4.57
2023-07-24T04:56:42.239Z,6.78
2023-07-24T04:59:09.778Z,5.65
2023-07-24T05:01:36.243Z,6.55
2023-07-24T05:04:02.722Z,8.65
2023-07-24T05:06:29.418Z,5.32
2023-07-24T05:08:56.139Z,5.78
2023-07-24T05:11:22.588Z,6.30
2023-07-24T05:13:49.032Z,5.25
2023-07-24T05:16:15.424Z,8.43
2023-07-24T05:18:42.868Z,7.82
2023-07-24T05:21:09.290Z,7.13
2023-07-24T05:23:35.753Z,7.88
2023-07-24T05:26:04.344Z,6.88
2023-07-24T05:28:32.439Z,8.25
2023-07-24T05:31:06.599Z,5.10
2023-07-24T05:33:33.213Z,6.40
2023-07-24T05:36:04.718Z,9.82
2023-07-24T05:38:31.771Z,9.23
2023-07-24T05:40:59.289Z,7.53
2023-07-24T05:43:27.201Z,7.78
2023-07-24T05:45:54.494Z,6.25
2023-07-24T05:48:21.332Z,8.85
2023-07-24T05:50:48.638Z,8.07
2023-07-24T05:53:15.915Z,7.45
2023-07-24T05:55:43.417Z,5.18
2023-07-24T05:58:10.237Z,6.90
2023-07-24T06:00:37.539Z,5.57
2023-07-24T06:03:07.939Z,7.10
2023-07-24T06:05:34.962Z,6.47
2023-07-24T06:08:01.325Z,6.35
2023-07-24T06:10:27.747Z,6.40
2023-07-24T06:12:54.192Z,5.78
2023-07-24T06:15:20.619Z,6.15
2023-07-24T06:17:47.170Z,7.85
2023-07-24T06:20:13.587Z,8.20
2023-07-24T06:22:40.010Z,5.78
2023-07-24T06:25:06.726Z,9.05
2023-07-24T06:27:33.088Z,6.75
2023-07-24T06:30:12.795Z,5.78
2023-07-24T06:32:44.527Z,6.72
2023-07-24T06:35:11.152Z,8.23
2023-07-24T06:37:37.646Z,11.50
2023-07-24T06:40:04.448Z,8.63
2023-07-24T06:42:31.043Z,9.40
2023-07-24T06:44:57.423Z,6.53
2023-07-24T06:47:23.851Z,7.25
2023-07-24T06:49:50.297Z,7.60
2023-07-24T06:52:16.880Z,6.07
2023-07-24T06:54:43.364Z,6.40
2023-07-24T06:57:10.066Z,7.35
2023-07-24T06:59:36.437Z,7.65
2023-07-24T07:02:02.948Z,8.05
2023-07-24T07:04:29.405Z,6.60
2023-07-24T07:06:56.148Z,6.90
2023-07-24T07:09:22.513Z,13.30
2023-07-24T07:11:48.919Z,7.50
2023-07-24T07:14:16.033Z,10.98
2023-07-24T07:16:42.460Z,7.45
2023-07-24T07:19:10.442Z,6.80
2023-07-24T07:21:37.773Z,6.55
2023-07-24T07:24:04.466Z,7.03
2023-07-24T07:26:31.360Z,6.55
2023-07-24T07:28:58.099Z,7.75
2023-07-24T07:31:24.472Z,9.85
2023-07-24T07:33:50.920Z,8.27
2023-07-24T07:36:18.632Z,7.75
2023-07-24T07:38:45.562Z,6.80
2023-07-24T07:41:12.255Z,5.38
2023-07-24T07:43:39.949Z,5.88
2023-07-24T07:46:06.321Z,6.05
2023-07-24T07:48:33.776Z,7.85
2023-07-24T07:51:00.222Z,6.75
2023-07-24T07:53:26.704Z,6.82
2023-07-24T07:56:00.778Z,7.18
2023-07-24T07:58:27.311Z,5.32
2023-07-24T08:00:53.932Z,5.57
2023-07-24T08:03:20.435Z,8.05
2023-07-24T08:05:46.919Z,6.55
2023-07-24T08:08:13.346Z,5.43
2023-07-24T08:10:40.092Z,4.72
2023-07-24T08:13:07.757Z,6.47
2023-07-24T08:15:38.037Z,7.03
2023-07-24T08:18:06.003Z,6.00
2023-07-24T08:20:37.143Z,5.63
2023-07-24T08:23:04.129Z,5.60
2023-07-24T08:25:31.559Z,6.78
2023-07-24T08:28:05.445Z,5.90
2023-07-24T08:33:00.266Z,6.47
2023-07-24T08:35:27.065Z,7.30
2023-07-24T08:37:53.470Z,5.85
2023-07-24T08:40:19.905Z,5.88
2023-07-24T08:42:50.486Z,6.53
2023-07-24T08:45:17.306Z,7.75
2023-07-24T08:47:45.330Z,6.35
2023-07-24T08:50:13.158Z,5.30
2023-07-24T08:52:40.423Z,6.05
2023-07-24T08:55:07.437Z,6.53
2023-07-24T08:57:33.884Z,6.97
2023-07-24T09:00:01.930Z,6.03
2023-07-24T09:02:28.427Z,9.38
2023-07-24T09:04:54.827Z,7.18
2023-07-24T09:07:21.312Z,7.10
2023-07-24T09:09:50.148Z,5.47
2023-07-24T09:12:17.440Z,5.85
2023-07-24T09:14:46.132Z,5.80
2023-07-24T09:17:12.634Z,4.90
2023-07-24T09:19:39.298Z,5.53
2023-07-24T09:22:17.787Z,6.22
2023-07-24T09:24:57.041Z,4.95
2023-07-24T09:27:29.616Z,6.38
2023-07-24T09:29:57.183Z,6.60
2023-07-24T09:32:25.781Z,5.45
2023-07-24T09:34:52.800Z,5.03
2023-07-24T09:37:31.586Z,5.32
2023-07-24T09:40:00.127Z,7.93
2023-07-24T09:42:48.600Z,5.38
2023-07-24T09:45:25.271Z,6.40
2023-07-24T09:47:57.976Z,4.63
2023-07-24T09:50:28.787Z,5.32
2023-07-24T09:52:56.724Z,4.45
2023-07-24T09:55:31.213Z,4.40
2023-07-24T09:57:58.202Z,4.10
2023-07-24T10:00:25.255Z,4.70
2023-07-24T10:02:52.104Z,4.35
2023-07-24T10:05:19.027Z,5.55
2023-07-24T10:07:46.009Z,4.68
2023-07-24T10:10:13.217Z,5.28
2023-07-24T10:12:40.349Z,5.25
2023-07-24T10:15:07.614Z,3.90
2023-07-24T10:17:38.722Z,4.65
2023-07-24T10:20:10.444Z,4.05
2023-07-24T10:22:42.232Z,3.97
2023-07-24T10:25:10.028Z,5.00
2023-07-24T10:27:47.533Z,3.20
2023-07-24T10:30:32.102Z,4.43
2023-07-24T10:33:18.261Z,4.43
2023-07-24T10:35:47.676Z,4.97
2023-07-24T10:38:17.334Z,6.65
2023-07-24T10:40:47.055Z,6.25
2023-07-24T10:43:18.411Z,4.88
2023-07-24T10:45:51.971Z,6.07
2023-07-24T10:48:19.781Z,5.00
2023-07-24T10:50:50.689Z,5.22
2023-07-24T10:53:21.379Z,4.60
2023-07-24T10:55:48.881Z,5.25
2023-07-24T10:58:15.552Z,5.43
2023-07-24T11:00:43.047Z,5.65
2023-07-24T11:03:14.404Z,5.00
2023-07-24T11:05:42.703Z,5.80
2023-07-24T11:08:16.468Z,8.25
2023-07-24T11:10:53.699Z,6.07
2023-07-24T11:13:22.739Z,3.75
2023-07-24T11:15:50.417Z,5.53
2023-07-24T11:18:17.738Z,4.68
2023-07-24T11:20:50.099Z,5.75
2023-07-24T11:23:17.027Z,5.32
2023-07-24T11:25:44.367Z,5.97
2023-07-24T11:28:12.723Z,5.07
2023-07-24T11:30:39.535Z,4.18
2023-07-24T11:33:09.511Z,6.85
2023-07-24T11:35:36.721Z,6.13
2023-07-24T11:38:04.412Z,5.07
2023-07-24T11:40:47.425Z,4.68
2023-07-24T11:43:25.035Z,5.72
2023-07-24T11:45:53.677Z,5.20
2023-07-24T11:48:21.215Z,5.57
2023-07-24T11:50:53.156Z,6.45
2023-07-24T11:53:31.098Z,5.80
2023-07-24T11:55:59.447Z,5.03
2023-07-24T11:58:30.810Z,4.45
2023-07-24T12:00:57.706Z,5.10
2023-07-24T12:03:29.744Z,8.27
2023-07-24T12:05:56.955Z,5.15
2023-07-24T12:08:35.844Z,5.60
2023-07-24T12:11:03.392Z,6.72
2023-07-24T12:13:30.242Z,6.30
2023-07-24T12:15:56.917Z,6.70
2023-07-24T12:18:23.391Z,9.05
2023-07-24T12:20:49.771Z,5.32
2023-07-24T12:23:17.087Z,7.57
2023-07-24T12:25:43.570Z,9.88
2023-07-24T12:28:10.037Z,5.88
2023-07-24T12:30:36.507Z,5.20
2023-07-24T12:33:03.057Z,5.80
2023-07-24T12:35:29.728Z,5.47
2023-07-24T12:37:56.232Z,6.72
2023-07-24T12:40:22.726Z,5.43
2023-07-24T12:42:49.212Z,5.70
2023-07-24T12:45:15.849Z,4.50
2023-07-24T12:47:42.274Z,5.18
2023-07-24T12:50:09.236Z,3.25
2023-07-24T12:52:35.705Z,4.10
2023-07-24T12:55:03.056Z,3.88
2023-07-24T12:57:30.224Z,3.42
2023-07-24T12:59:56.779Z,3.47
2023-07-24T13:02:23.215Z,3.85
2023-07-24T13:04:49.666Z,2.90
2023-07-24T13:07:16.193Z,3.55
2023-07-24T13:09:42.625Z,3.67
2023-07-24T13:12:09.929Z,4.75
2023-07-24T13:14:37.730Z,3.47
2023-07-24T13:17:05.739Z,3.72
2023-07-24T13:19:32.403Z,7.75
2023-07-24T13:21:58.878Z,2.33
2023-07-24T13:24:25.516Z,3.70
2023-07-24T13:26:51.901Z,2.55
2023-07-24T13:29:18.408Z,4.35
2023-07-24T13:31:45.475Z,5.50
2023-07-24T13:34:12.005Z,12.27
2023-07-24T13:36:38.451Z,3.40
2023-07-24T13:39:04.861Z,4.75
2023-07-24T13:41:31.548Z,6.70
2023-07-24T13:43:58.220Z,4.90
2023-07-24T13:46:24.734Z,6.47
2023-07-24T13:48:51.215Z,4.30
2023-07-24T13:51:17.613Z,7.35
2023-07-24T13:53:44.033Z,3.20
2023-07-24T13:56:10.612Z,7.13
2023-07-24T13:58:37.012Z,3.97
2023-07-24T14:01:03.627Z,7.05
2023-07-24T14:03:30.567Z,4.10
2023-07-24T14:05:57.847Z,5.35
2023-07-24T14:08:24.570Z,3.92
2023-07-24T14:10:51.561Z,3.55
2023-07-24T14:13:18.289Z,4.07
2023-07-24T14:15:44.667Z,2.72
2023-07-24T14:18:11.094Z,3.25
2023-07-24T14:20:38.414Z,4.10
2023-07-24T14:23:04.818Z,5.05
2023-07-24T14:25:31.230Z,3.40
2023-07-24T14:27:57.632Z,4.07
2023-07-24T14:30:24.022Z,4.22
2023-07-24T14:32:51.674Z,6.15
2023-07-24T14:35:18.339Z,6.82
2023-07-24T14:37:44.847Z,3.72
2023-07-24T14:40:13.017Z,5.30
2023-07-24T14:42:39.414Z,4.57
2023-07-24T14:45:06.529Z,4.35
2023-07-24T14:47:33.071Z,4.35
2023-07-24T14:49:59.917Z,3.13
2023-07-24T14:52:26.311Z,3.05
2023-07-24T14:54:52.740Z,3.30
2023-07-24T14:57:25.371Z,4.03
2023-07-24T14:59:53.357Z,2.22
2023-07-24T15:02:19.920Z,1.30
2023-07-24T15:04:46.529Z,2.05
2023-07-24T15:07:12.876Z,2.50
2023-07-24T15:09:39.261Z,1.90
2023-07-24T15:12:06.295Z,2.38
2023-07-24T15:14:32.863Z,4.13
2023-07-24T15:16:59.253Z,3.20
2023-07-24T15:19:25.656Z,2.60
2023-07-24T15:21:52.042Z,2.58
2023-07-24T15:24:19.001Z,5.07
2023-07-24T15:26:46.754Z,4.50
2023-07-24T15:29:17.169Z,3.22
2023-07-24T15:31:45.606Z,2.88
2023-07-24T15:34:12.036Z,2.53
2023-07-24T15:36:38.710Z,4.10
2023-07-24T15:39:05.558Z,4.35
2023-07-24T15:41:33.009Z,3.45
2023-07-24T15:44:00.379Z,3.42
2023-07-24T15:46:29.562Z,3.78
2023-07-24T15:48:57.657Z,3.22
2023-07-24T15:51:25.784Z,3.35
2023-07-24T15:53:52.293Z,4.72
2023-07-24T15:56:18.825Z,3.67
2023-07-24T15:58:45.457Z,2.58
2023-07-24T16:01:12.023Z,2.10
2023-07-24T16:03:38.940Z,2.20
2023-07-24T16:06:06.201Z,2.03
2023-07-24T16:08:32.772Z,2.97
2023-07-24T16:10:59.402Z,2.65
2023-07-24T16:13:25.847Z,2.08
2023-07-24T16:15:52.243Z,2.88
2023-07-24T16:18:22.961Z,2.20
2023-07-24T16:20:49.488Z,2.67
2023-07-24T16:23:16.914Z,2.55
2023-07-24T16:25:43.325Z,1.95
2023-07-24T16:28:09.718Z,2.15
2023-07-24T16:30:36.431Z,2.67
2023-07-24T16:33:03.004Z,2.70
2023-07-24T16:35:29.637Z,1.77
2023-07-24T16:37:56.099Z,2.13
2023-07-24T16:40:22.566Z,2.47
2023-07-24T16:42:51.647Z,3.28
2023-07-24T16:47:52.057Z,1.80
2023-07-24T16:50:18.556Z,4.20
2023-07-24T16:52:45.040Z,1.77
2023-07-24T16:55:11.762Z,3.85
2023-07-24T16:57:39.110Z,2.33
2023-07-24T17:00:06.600Z,2.55
2023-07-24T17:02:34.348Z,3.83
2023-07-24T17:05:00.808Z,3.55
2023-07-24T17:07:27.290Z,4.20
2023-07-24T17:09:53.661Z,4.47
2023-07-24T17:12:20.062Z,3.67
2023-07-24T17:14:46.711Z,5.60
2023-07-24T17:17:13.936Z,4.28
2023-07-24T17:19:42.776Z,3.83
2023-07-24T17:22:09.649Z,5.00
2023-07-24T17:24:36.160Z,3.85
2023-07-24T17:27:02.766Z,3.45
2023-07-24T17:29:29.185Z,2.50
2023-07-24T17:31:55.608Z,3.13
2023-07-24T17:34:21.987Z,3.33
2023-07-24T17:36:48.360Z,4.25
2023-07-24T17:39:14.789Z,3.63
2023-07-24T17:41:41.163Z,3.05
2023-07-24T17:44:07.570Z,3.22
2023-07-24T17:46:33.985Z,2.95
2023-07-24T17:49:00.612Z,4.10
2023-07-24T17:51:27.259Z,2.75
2023-07-24T17:53:53.764Z,4.18
2023-07-24T17:56:20.206Z,3.17
2023-07-24T17:58:46.645Z,2.97
2023-07-24T18:01:13.067Z,4.07
2023-07-24T18:03:39.508Z,5.10
2023-07-24T18:06:06.003Z,3.90
2023-07-24T18:08:32.486Z,3.17
2023-07-24T18:10:59.034Z,3.38
2023-07-24T18:13:25.453Z,2.92
2023-07-24T18:15:51.820Z,4.25
2023-07-24T18:18:18.245Z,5.40
2023-07-24T18:20:44.744Z,4.25
2023-07-24T18:23:11.246Z,3.92
2023-07-24T18:25:37.652Z,5.10
2023-07-24T18:28:04.233Z,3.92
2023-07-24T18:30:31.098Z,3.17
2023-07-24T18:32:58.102Z,3.67
2023-07-24T18:35:25.061Z,3.40
2023-07-24T18:37:51.948Z,4.25
2023-07-24T18:40:18.525Z,3.30
2023-07-24T18:42:45.007Z,3.88
2023-07-24T18:45:11.488Z,5.72
2023-07-24T18:47:38.075Z,3.60
2023-07-24T18:50:04.996Z,6.65
2023-07-24T18:52:31.365Z,4.10
2023-07-24T18:55:00.364Z,3.47
2023-07-24T18:57:26.849Z,3.72
2023-07-24T18:59:53.386Z,4.15
2023-07-24T19:02:19.884Z,8.57
2023-07-24T19:04:46.359Z,5.32
2023-07-24T19:07:12.736Z,4.95
2023-07-24T19:09:39.101Z,5.93
2023-07-24T19:12:05.981Z,5.78
2023-07-24T19:14:32.508Z,8.20
2023-07-24T19:16:58.958Z,4.72
2023-07-24T19:19:26.608Z,4.38
2023-07-24T19:21:53.424Z,5.90
2023-07-24T19:24:19.960Z,5.63
2023-07-24T19:26:46.563Z,4.28
2023-07-24T19:29:13.046Z,4.03
2023-07-24T19:31:39.465Z,4.57
2023-07-24T19:34:05.908Z,4.97
2023-07-24T19:36:32.504Z,5.93
2023-07-24T19:38:58.933Z,5.82
2023-07-24T19:41:26.501Z,4.80
2023-07-24T19:43:52.982Z,5.68
2023-07-24T19:46:19.661Z,4.60
2023-07-24T19:48:46.150Z,6.38
2023-07-24T19:51:12.714Z,6.28
2023-07-24T19:53:39.149Z,6.85
2023-07-24T19:56:05.606Z,9.88
2023-07-24T19:58:36.269Z,4.65
2023-07-24T20:01:04.752Z,5.10
2023-07-24T20:03:31.679Z,7.75
2023-07-24T20:06:00.994Z,6.80
2023-07-24T20:08:30.175Z,7.30
2023-07-24T20:10:58.063Z,7.18
2023-07-24T20:13:25.396Z,7.93
2023-07-24T20:15:51.869Z,5.38
2023-07-24T20:18:18.242Z,5.82
2023-07-24T20:20:48.949Z,6.75
2023-07-24T20:23:16.548Z,5.25
2023-07-24T20:25:45.947Z,6.13
2023-07-24T20:28:13.182Z,9.15
2023-07-24T20:30:40.344Z,4.78
2023-07-24T20:33:06.835Z,6.70
2023-07-24T20:35:33.666Z,5.90
2023-07-24T20:38:04.315Z,6.95
2023-07-24T20:40:31.241Z,6.75
2023-07-24T20:42:57.639Z,4.50
2023-07-24T20:45:25.078Z,6.72
2023-07-24T20:47:51.579Z,4.97
2023-07-24T20:50:18.071Z,6.32
2023-07-24T20:52:44.460Z,5.50
2023-07-24T20:55:10.865Z,5.05
2023-07-24T20:57:37.328Z,5.22
2023-07-24T21:00:05.021Z,4.38
2023-07-24T21:02:31.407Z,6.68
2023-07-24T21:04:57.933Z,5.88
2023-07-24T21:07:24.371Z,6.55
2023-07-24T21:09:51.708Z,7.13
2023-07-24T21:12:18.101Z,5.72
2023-07-24T21:14:45.727Z,5.30
2023-07-24T21:17:12.207Z,4.30
2023-07-24T21:19:38.704Z,4.63
2023-07-24T21:22:05.376Z,4.43
2023-07-24T21:24:31.813Z,6.45
2023-07-24T21:26:59.500Z,4.93
2023-07-24T21:29:25.874Z,4.68
2023-07-24T21:31:52.309Z,6.32
2023-07-24T21:34:20.955Z,5.25
2023-07-24T21:36:47.424Z,6.28
2023-07-24T21:39:13.906Z,6.10
2023-07-24T21:41:40.307Z,4.45
2023-07-24T21:44:06.681Z,6.15
2023-07-24T21:46:33.374Z,5.65
2023-07-24T21:48:59.743Z,6.60
2023-07-24T21:51:26.140Z,5.25
2023-07-24T21:53:52.522Z,5.32
2023-07-24T21:56:18.987Z,5.60
2023-07-24T21:58:45.436Z,8.50
2023-07-24T22:01:11.972Z,6.03
2023-07-24T22:03:38.445Z,9.30
2023-07-24T22:06:07.525Z,5.40
2023-07-24T22:08:34.365Z,4.78
2023-07-24T22:11:00.754Z,8.85
2023-07-24T22:13:27.278Z,5.57
2023-07-24T22:15:53.773Z,8.02
2023-07-24T22:18:20.157Z,7.25
2023-07-24T22:20:46.727Z,6.65
2023-07-24T22:23:13.261Z,6.45
2023-07-24T22:25:40.245Z,6.20
2023-07-24T22:28:06.675Z,5.80
2023-07-24T22:30:33.250Z,6.63
2023-07-24T22:32:59.729Z,7.68
2023-07-24T22:35:26.278Z,5.95
2023-07-24T22:37:52.672Z,8.10
2023-07-24T22:40:19.154Z,9.07
2023-07-24T22:42:46.626Z,8.55
2023-07-24T22:45:13.067Z,11.95
2023-07-24T22:47:39.574Z,8.07
2023-07-24T22:50:06.571Z,8.13
2023-07-24T22:52:32.980Z,10.40
2023-07-24T22:54:59.390Z,8.65
2023-07-24T22:57:25.823Z,9.48
2023-07-24T22:59:52.293Z,10.63
2023-07-24T23:02:18.692Z,10.07
2023-07-24T23:04:45.079Z,10.10
2023-07-24T23:07:11.759Z,8.77
2023-07-24T23:09:38.201Z,7.22
2023-07-24T23:12:07.000Z,9.25
2023-07-24T23:14:33.406Z,9.38
2023-07-24T23:16:59.930Z,9.07
2023-07-24T23:19:26.475Z,12.80
2023-07-24T23:21:52.872Z,10.68
2023-07-24T23:24:19.331Z,9.38
2023-07-24T23:26:45.917Z,9.77
2023-07-24T23:29:12.599Z,10.35
2023-07-24T23:31:39.128Z,10.55
2023-07-24T23:34:05.990Z,14.23
2023-07-24T23:36:32.428Z,9.02
2023-07-24T23:38:58.955Z,13.45
2023-07-24T23:41:26.687Z,13.10
2023-07-24T23:43:53.308Z,10.82
2023-07-24T23:46:19.762Z,11.02
2023-07-24T23:48:46.300Z,9.68
2023-07-24T23:51:17.379Z,9.52
2023-07-24T23:53:44.732Z,16.85
2023-07-24T23:56:11.853Z,13.65
2023-07-24T23:58:38.520Z,12.13
